Time;durP1;ratioP1;P1;durP2;ratioP2;P2;SDS_P1;SDS_P2;PMS_P1;PMS_P2;Temp;Humidity;BMP_temperature;BMP_pressure;BME280_temperature;BME280_humidity;BME280_pressure;Samples;Min_cycle;Max_cycle;Signal;HPM_P1;HPM_P2
2022/09/20 00:01:15;;;;;;;9.98;1.08;;;12.00;99.90;;;;;;5049838;28;20539;-74
2022/09/20 00:03:44;;;;;;;9.40;1.30;;;12.00;99.90;;;;;;5032075;28;20413;-74
2022/09/20 00:06:13;;;;;;;9.32;1.30;;;12.00;99.90;;;;;;5049651;28;20455;-74
2022/09/20 00:08:39;;;;;;;11.95;1.33;;;11.90;99.90;;;;;;5048702;28;20424;-73
2022/09/20 00:11:08;;;;;;;6.78;0.85;;;11.90;99.90;;;;;;5049792;28;20416;-74
2022/09/20 00:13:35;;;;;;;5.60;0.80;;;11.90;99.90;;;;;;5049412;28;20818;-74
2022/09/20 00:16:05;;;;;;;7.18;1.08;;;11.80;99.90;;;;;;5050010;28;20617;-74
2022/09/20 00:18:31;;;;;;;9.75;1.40;;;11.80;99.90;;;;;;5061413;28;20400;-74
2022/09/20 00:20:56;;;;;;;5.38;0.63;;;11.80;99.90;;;;;;5048680;28;20488;-74
2022/09/20 00:23:22;;;;;;;8.77;0.80;;;11.80;99.90;;;;;;5060875;28;20545;-74
2022/09/20 00:26:00;;;;;;;9.30;1.00;;;11.70;99.90;;;;;;5049649;28;20398;-74
2022/09/20 00:28:26;;;;;;;7.43;1.05;;;11.70;99.90;;;;;;5031438;28;20460;-74
2022/09/20 00:30:53;;;;;;;9.75;1.10;;;11.80;99.90;;;;;;5014787;28;20406;-74
2022/09/20 00:33:20;;;;;;;11.90;1.27;;;11.70;99.90;;;;;;5048206;28;20488;-74
2022/09/20 00:35:46;;;;;;;7.68;1.02;;;11.80;99.90;;;;;;5035853;28;20928;-74
2022/09/20 00:38:13;;;;;;;10.07;1.15;;;11.80;99.90;;;;;;5049097;28;20397;-73
2022/09/20 00:40:43;;;;;;;14.52;1.40;;;11.80;99.90;;;;;;5049061;28;20437;-73
2022/09/20 00:43:17;;;;;;;10.57;1.10;;;11.80;99.90;;;;;;5048664;28;20421;-73
2022/09/20 00:45:48;;;;;;;13.18;1.60;;;11.80;99.90;;;;;;5031188;28;20412;-74
2022/09/20 00:48:28;;;;;;;9.73;1.17;;;11.80;99.90;;;;;;5048860;28;20436;-73
2022/09/20 00:51:00;;;;;;;8.85;0.93;;;11.80;99.90;;;;;;5048965;28;21070;-74
2022/09/20 00:53:31;;;;;;;7.77;0.60;;;11.80;99.90;;;;;;5027144;28;20411;-73
2022/09/20 00:56:23;;;;;;;5.83;0.60;;;11.80;99.90;;;;;;5042617;28;20413;-74
2022/09/20 00:59:13;;;;;;;8.45;0.90;;;11.80;99.90;;;;;;5039802;28;20406;-75
2022/09/20 01:01:39;;;;;;;5.30;0.60;;;11.80;99.90;;;;;;5047667;28;20520;-74
2022/09/20 01:04:05;;;;;;;3.57;0.50;;;11.70;99.90;;;;;;5048264;28;20463;-74
2022/09/20 01:06:32;;;;;;;6.03;0.60;;;11.70;99.90;;;;;;5047944;28;20900;-74
2022/09/20 01:09:01;;;;;;;7.22;0.57;;;11.70;99.90;;;;;;5048678;28;20409;-74
2022/09/20 01:11:29;;;;;;;9.57;0.52;;;11.70;99.90;;;;;;5048549;28;20402;-73
2022/09/20 01:13:55;;;;;;;6.32;0.60;;;11.70;99.90;;;;;;5058520;28;20404;-74
2022/09/20 01:16:21;;;;;;;3.53;0.30;;;11.70;99.90;;;;;;5051000;28;20451;-74
2022/09/20 01:18:48;;;;;;;5.63;0.70;;;11.70;99.90;;;;;;5048109;28;20488;-73
2022/09/20 01:21:16;;;;;;;8.45;0.70;;;11.70;99.90;;;;;;5030383;28;20424;-73
2022/09/20 01:23:50;;;;;;;6.13;0.85;;;11.70;99.90;;;;;;5060745;28;20459;-74
2022/09/20 01:26:41;;;;;;;3.42;0.50;;;11.70;99.90;;;;;;5030214;28;20501;-74
2022/09/20 01:29:34;;;;;;;5.57;0.98;;;11.80;99.90;;;;;;5048246;28;20413;-74
2022/09/20 01:32:02;;;;;;;6.63;0.73;;;11.80;99.90;;;;;;5037616;28;21283;-74
2022/09/20 01:34:36;;;;;;;7.22;1.00;;;11.80;99.90;;;;;;5047730;28;20433;-74
2022/09/20 01:37:21;;;;;;;6.55;0.70;;;11.80;99.90;;;;;;5048157;28;20496;-75
2022/09/20 01:40:16;;;;;;;7.20;0.70;;;11.80;99.90;;;;;;5067804;28;20917;-74
2022/09/20 01:43:14;;;;;;;6.00;0.90;;;11.90;99.90;;;;;;5048259;28;20406;-74
2022/09/20 01:45:46;;;;;;;7.00;0.70;;;11.80;99.90;;;;;;5047976;28;20413;-74
2022/09/20 01:48:16;;;;;;;6.70;0.90;;;11.80;99.90;;;;;;5030007;28;20431;-73
2022/09/20 01:51:01;;;;;;;7.55;0.70;;;11.80;99.90;;;;;;5047988;28;20408;-74
2022/09/20 01:53:54;;;;;;;8.17;0.80;;;11.80;99.90;;;;;;5047650;28;20405;-74
2022/09/20 01:56:38;;;;;;;6.50;0.50;;;11.80;99.90;;;;;;5047713;28;20429;-74
2022/09/20 01:59:26;;;;;;;4.87;0.60;;;11.80;99.90;;;;;;5030247;28;20449;-74
2022/09/20 02:02:36;;;;;;;6.93;0.60;;;11.70;99.90;;;;;;5047712;28;21117;-75
2022/09/20 02:05:07;;;;;;;5.47;0.95;;;11.70;99.90;;;;;;5008610;28;20417;-74
2022/09/20 02:07:46;;;;;;;6.73;0.70;;;11.70;99.90;;;;;;5029364;28;20437;-74
2022/09/20 02:10:37;;;;;;;6.35;0.55;;;11.70;99.90;;;;;;5029865;28;20413;-74
2022/09/20 02:13:11;;;;;;;6.30;1.10;;;11.70;99.90;;;;;;5053037;28;20438;-74
2022/09/20 02:16:03;;;;;;;5.17;0.60;;;11.70;99.90;;;;;;5053210;28;20693;-74
2022/09/20 02:18:40;;;;;;;6.55;0.60;;;11.70;99.90;;;;;;5023058;28;20416;-74
2022/09/20 02:21:30;;;;;;;8.63;0.52;;;11.70;99.90;;;;;;5048577;28;20995;-74
2022/09/20 02:24:17;;;;;;;6.40;0.63;;;11.70;99.90;;;;;;5047336;28;20444;-74
2022/09/20 02:27:06;;;;;;;5.80;0.57;;;11.70;99.90;;;;;;5047089;28;20492;-74
2022/09/20 02:29:50;;;;;;;9.45;0.82;;;11.70;99.90;;;;;;5017610;28;20846;-74
2022/09/20 02:32:31;;;;;;;7.25;0.70;;;11.70;99.90;;;;;;5029298;28;20409;-74
2022/09/20 02:35:11;;;;;;;6.20;0.57;;;11.70;99.90;;;;;;5047132;28;20413;-74
2022/09/20 02:37:49;;;;;;;3.23;0.53;;;11.60;99.90;;;;;;5034961;28;20401;-74
2022/09/20 02:40:21;;;;;;;5.85;0.80;;;11.60;99.90;;;;;;5046733;28;21049;-75
2022/09/20 02:43:13;;;;;;;7.78;0.80;;;11.60;99.90;;;;;;5047322;28;20822;-73
2022/09/20 02:45:55;;;;;;;5.72;0.50;;;11.60;99.90;;;;;;5046403;28;20416;-74
2022/09/20 02:48:29;;;;;;;6.82;0.50;;;11.50;99.90;;;;;;5048718;28;20421;-75
2022/09/20 02:51:02;;;;;;;5.90;0.52;;;11.50;99.90;;;;;;5026606;28;20814;-74
2022/09/20 02:53:34;;;;;;;5.00;0.65;;;11.50;99.90;;;;;;5046377;28;20409;-75
2022/09/20 02:56:13;;;;;;;5.78;0.52;;;11.50;99.90;;;;;;5046636;28;20488;-75
2022/09/20 02:59:06;;;;;;;5.00;0.50;;;11.50;99.90;;;;;;5028873;28;20500;-75
2022/09/20 03:01:37;;;;;;;5.60;0.50;;;11.40;99.90;;;;;;5035211;28;20425;-74
2022/09/20 03:04:42;;;;;;;5.97;0.70;;;11.40;99.90;;;;;;5046790;28;20406;-75
2022/09/20 03:07:28;;;;;;;6.60;1.00;;;11.30;99.90;;;;;;5029072;28;20429;-74
2022/09/20 03:10:18;;;;;;;6.07;0.80;;;11.20;99.90;;;;;;5047564;28;20424;-74
2022/09/20 03:13:16;;;;;;;5.10;0.52;;;11.10;99.90;;;;;;5037489;28;20439;-74
2022/09/20 03:16:19;;;;;;;8.07;0.70;;;11.00;99.90;;;;;;5060001;28;20504;-74
2022/09/20 03:18:59;;;;;;;8.15;0.88;;;11.00;99.90;;;;;;5042963;28;20874;-74
2022/09/20 03:21:43;;;;;;;9.15;0.90;;;10.90;99.90;;;;;;5059212;28;20417;-74
2022/09/20 03:24:08;;;;;;;7.55;0.80;;;10.90;99.90;;;;;;5048402;28;20894;-74
2022/09/20 03:27:08;;;;;;;8.77;0.70;;;10.90;99.90;;;;;;5047880;28;20401;-75
2022/09/20 03:29:49;;;;;;;6.05;0.77;;;10.80;99.90;;;;;;5047250;28;20431;-74
2022/09/20 03:32:49;;;;;;;7.63;1.00;;;10.80;99.90;;;;;;5046853;28;20932;-74
2022/09/20 03:35:34;;;;;;;7.15;1.17;;;10.70;99.90;;;;;;5018556;28;20496;-74
2022/09/20 03:38:38;;;;;;;7.05;0.98;;;10.70;99.90;;;;;;5046860;28;20409;-75
2022/09/20 03:41:25;;;;;;;7.40;1.10;;;10.60;99.90;;;;;;5017421;28;20426;-74
2022/09/20 03:44:00;;;;;;;5.07;1.70;;;10.50;99.90;;;;;;5044195;28;20846;-74
2022/09/20 03:46:26;;;;;;;4.80;0.68;;;10.50;99.90;;;;;;5051057;28;20428;-74
2022/09/20 03:48:52;;;;;;;10.45;1.48;;;10.40;99.90;;;;;;5051040;28;20433;-74
2022/09/20 03:51:28;;;;;;;9.60;1.10;;;10.40;99.90;;;;;;5051233;28;20504;-74
2022/09/20 03:54:14;;;;;;;7.00;0.90;;;10.30;99.90;;;;;;5058005;28;20788;-75
2022/09/20 03:57:01;;;;;;;7.07;1.35;;;10.30;99.90;;;;;;5029840;28;20419;-75
2022/09/20 03:59:47;;;;;;;8.82;1.02;;;10.30;99.90;;;;;;5031721;28;20413;-74
2022/09/20 04:02:46;;;;;;;5.35;1.05;;;10.20;99.90;;;;;;5050495;28;20413;-75
2022/09/20 04:05:18;;;;;;;6.32;1.27;;;10.20;99.90;;;;;;5041396;28;20423;-74
2022/09/20 04:08:17;;;;;;;5.40;0.98;;;10.10;99.90;;;;;;5049936;28;20456;-74
2022/09/20 04:11:14;;;;;;;8.93;1.00;;;10.00;99.90;;;;;;5049182;28;20482;-74
2022/09/20 04:14:18;;;;;;;7.95;1.33;;;9.90;99.90;;;;;;5029177;28;20419;-74
2022/09/20 04:17:21;;;;;;;5.77;0.87;;;9.90;99.90;;;;;;4983359;28;20401;-74
2022/09/20 04:20:11;;;;;;;6.15;1.10;;;9.80;99.90;;;;;;5050967;28;20413;-74
2022/09/20 04:22:39;;;;;;;7.18;1.00;;;9.70;99.90;;;;;;5028761;28;20492;-74
2022/09/20 04:25:18;;;;;;;8.43;1.10;;;9.70;99.90;;;;;;5049180;28;20381;-74
2022/09/20 04:27:50;;;;;;;7.50;1.17;;;9.70;99.90;;;;;;5038380;28;20443;-74
2022/09/20 04:30:17;;;;;;;8.02;1.40;;;9.60;99.90;;;;;;5049744;28;20401;-74
2022/09/20 04:33:07;;;;;;;6.53;1.00;;;9.60;99.90;;;;;;5062463;28;20420;-74
2022/09/20 04:39:14;;;;;;;7.18;1.40;;;9.50;99.90;;;;;;5037299;28;20763;-74
2022/09/20 04:42:16;;;;;;;5.78;1.35;;;9.40;99.90;;;;;;5048401;28;20421;-75
2022/09/20 04:45:06;;;;;;;6.40;1.10;;;9.40;99.90;;;;;;5049043;28;20430;-74
2022/09/20 04:47:38;;;;;;;8.70;0.95;;;9.30;99.90;;;;;;5030156;28;20979;-74
2022/09/20 04:50:21;;;;;;;7.50;1.50;;;9.30;99.90;;;;;;5036764;28;20414;-74
2022/09/20 04:53:09;;;;;;;6.15;1.35;;;9.30;99.90;;;;;;5048485;28;20493;-74
2022/09/20 04:55:54;;;;;;;7.35;1.50;;;9.30;99.90;;;;;;5048152;28;20757;-74
2022/09/20 04:58:26;;;;;;;8.70;1.38;;;9.20;99.90;;;;;;5048934;28;21004;-74
2022/09/20 05:01:15;;;;;;;6.75;1.00;;;9.20;99.90;;;;;;5049543;28;20410;-74
2022/09/20 05:04:17;;;;;;;7.23;1.10;;;9.20;99.90;;;;;;5047404;28;20479;-74
2022/09/20 05:07:06;;;;;;;4.75;0.95;;;9.10;99.90;;;;;;5048525;28;20413;-74
2022/09/20 05:09:53;;;;;;;6.38;1.38;;;9.10;99.90;;;;;;5027638;28;20422;-74
2022/09/20 05:12:52;;;;;;;4.53;1.03;;;9.20;99.90;;;;;;5020345;28;20421;-75
2022/09/20 05:15:45;;;;;;;5.85;1.13;;;9.10;99.90;;;;;;5030921;28;20421;-74
2022/09/20 05:18:20;;;;;;;6.10;1.23;;;9.20;99.90;;;;;;5048292;28;20417;-74
2022/09/20 05:21:26;;;;;;;7.57;1.23;;;9.20;99.90;;;;;;5030198;28;20453;-74
2022/09/20 05:24:33;;;;;;;5.03;1.30;;;9.20;99.90;;;;;;5048048;28;20410;-74
2022/09/20 05:27:05;;;;;;;7.50;0.90;;;9.20;99.90;;;;;;5047691;28;20406;-74
2022/09/20 05:29:43;;;;;;;6.80;0.88;;;9.20;99.90;;;;;;5047477;28;20425;-74
2022/09/20 05:32:25;;;;;;;6.40;1.40;;;9.20;99.90;;;;;;5030249;28;20493;-74
2022/09/20 05:35:11;;;;;;;6.18;1.58;;;9.30;99.90;;;;;;5048599;28;20492;-74
2022/09/20 05:37:43;;;;;;;5.93;1.23;;;9.30;99.90;;;;;;5059804;28;20845;-75
2022/09/20 05:40:37;;;;;;;4.63;1.45;;;9.30;99.90;;;;;;5048292;28;20440;-75
2022/09/20 05:43:25;;;;;;;6.53;1.40;;;9.30;99.90;;;;;;5047888;28;20409;-74
2022/09/20 05:46:03;;;;;;;5.00;1.33;;;9.40;99.90;;;;;;5029748;28;20462;-74
2022/09/20 05:48:46;;;;;;;6.90;1.45;;;9.40;99.90;;;;;;5047519;28;20994;-73
2022/09/20 05:51:31;;;;;;;5.30;1.15;;;9.40;99.90;;;;;;5029399;28;20440;-74
2022/09/20 05:53:59;;;;;;;6.47;1.42;;;9.50;99.90;;;;;;5044685;28;20465;-77
2022/09/20 05:56:51;;;;;;;5.80;1.75;;;9.50;99.90;;;;;;5044948;28;20426;-73
2022/09/20 05:59:40;;;;;;;6.65;1.65;;;9.60;99.90;;;;;;5047693;28;20953;-74
2022/09/20 06:02:06;;;;;;;4.88;1.45;;;9.60;99.90;;;;;;5046642;28;20449;-74
2022/09/20 06:04:45;;;;;;;17.93;4.13;;;9.50;99.90;;;;;;5029894;28;20820;-74
2022/09/20 06:07:43;;;;;;;21.50;4.00;;;9.50;99.90;;;;;;5047603;28;20903;-74
2022/09/20 06:10:34;;;;;;;6.22;1.40;;;9.60;99.90;;;;;;5048072;28;20848;-74
2022/09/20 06:13:20;;;;;;;7.18;1.30;;;9.70;99.90;;;;;;5044906;28;20918;-74
2022/09/20 06:16:03;;;;;;;9.52;1.65;;;9.70;99.90;;;;;;5046582;28;20427;-74
2022/09/20 06:19:09;;;;;;;8.38;1.60;;;9.80;99.90;;;;;;5047058;28;20413;-74
2022/09/20 06:21:47;;;;;;;9.20;2.53;;;9.90;99.90;;;;;;5001443;28;20428;-74
2022/09/20 06:24:35;;;;;;;9.13;2.03;;;9.90;99.90;;;;;;5055825;28;20405;-73
2022/09/20 06:27:09;;;;;;;12.75;2.55;;;9.90;99.90;;;;;;5034224;28;20423;-74
2022/09/20 06:29:40;;;;;;;7.63;1.77;;;9.90;99.90;;;;;;5046945;28;20402;-74
2022/09/20 06:32:07;;;;;;;8.77;1.88;;;9.90;99.90;;;;;;5029661;28;20473;-74
2022/09/20 06:34:34;;;;;;;7.15;2.20;;;9.90;99.90;;;;;;5047418;28;20405;-74
2022/09/20 06:43:04;;;;;;;6.78;1.52;;;10.00;99.90;;;;;;5046803;28;20497;-74
2022/09/20 06:45:30;;;;;;;8.52;1.50;;;10.10;99.90;;;;;;5028668;28;21035;-75
2022/09/20 06:47:56;;;;;;;8.35;1.70;;;10.20;99.90;;;;;;5047214;28;20425;-74
2022/09/20 06:50:22;;;;;;;8.98;1.80;;;10.30;99.90;;;;;;5028212;28;20400;-74
2022/09/20 06:52:48;;;;;;;7.23;1.40;;;10.40;99.90;;;;;;5029192;28;20495;-75
2022/09/20 06:55:27;;;;;;;3.78;1.00;;;10.50;99.90;;;;;;5046741;28;20448;-74
2022/09/20 06:57:53;;;;;;;7.72;1.23;;;10.60;99.90;;;;;;5039227;28;20401;-74
2022/09/20 07:00:19;;;;;;;5.68;0.98;;;10.80;99.90;;;;;;5056876;28;20533;-74
2022/09/20 07:02:45;;;;;;;10.47;1.93;;;10.90;99.90;;;;;;5031871;28;20459;-75
2022/09/20 07:05:15;;;;;;;6.30;1.15;;;10.90;99.90;;;;;;5047353;28;20417;-74
2022/09/20 07:07:42;;;;;;;5.80;0.95;;;10.90;99.90;;;;;;5047490;28;20429;-74
2022/09/20 07:10:12;;;;;;;6.28;1.77;;;10.90;99.90;;;;;;5046459;28;20841;-74
2022/09/20 07:12:38;;;;;;;4.72;1.00;;;10.80;99.90;;;;;;5035696;28;20407;-74
2022/09/20 07:15:05;;;;;;;5.60;1.20;;;10.90;99.90;;;;;;5028819;28;20405;-75
2022/09/20 07:17:30;;;;;;;3.95;1.00;;;10.80;99.90;;;;;;5030336;28;20413;-74
2022/09/20 07:19:56;;;;;;;7.43;1.10;;;10.90;99.90;;;;;;5062832;28;20460;-74
2022/09/20 07:22:22;;;;;;;4.50;0.83;;;10.90;99.90;;;;;;5050348;28;20402;-74
2022/09/20 07:24:47;;;;;;;3.20;0.50;;;10.90;99.90;;;;;;5032348;28;20826;-74
2022/09/20 07:27:13;;;;;;;5.43;0.67;;;10.90;99.90;;;;;;5047651;28;20429;-74
2022/09/20 07:29:39;;;;;;;5.93;0.55;;;10.90;99.90;;;;;;5054360;28;20407;-74
2022/09/20 07:32:05;;;;;;;5.35;0.70;;;11.00;99.90;;;;;;5033235;28;20416;-74
2022/09/20 07:34:31;;;;;;;3.03;0.50;;;11.10;99.90;;;;;;5050682;28;20765;-74
2022/09/20 07:36:58;;;;;;;6.03;0.40;;;11.20;99.90;;;;;;5049190;28;20429;-74
2022/09/20 07:39:24;;;;;;;4.00;0.75;;;11.20;99.90;;;;;;5050577;28;20454;-74
2022/09/20 07:41:50;;;;;;;4.83;0.50;;;11.40;99.90;;;;;;5016530;28;20417;-75
2022/09/20 07:44:20;;;;;;;4.93;0.70;;;11.40;99.90;;;;;;5049568;28;20418;-75
2022/09/20 07:46:54;;;;;;;6.45;1.25;;;11.50;99.90;;;;;;5047615;28;20425;-75
2022/09/20 07:49:20;;;;;;;4.32;0.40;;;11.60;99.90;;;;;;5028509;28;20420;-75
2022/09/20 07:51:48;;;;;;;4.85;0.50;;;11.60;99.90;;;;;;5048831;28;20401;-75
2022/09/20 07:54:14;;;;;;;3.45;0.30;;;11.70;99.90;;;;;;5032776;28;20448;-75
2022/09/20 07:56:40;;;;;;;5.65;0.52;;;11.80;99.90;;;;;;5048895;28;20872;-75
2022/09/20 07:59:06;;;;;;;3.72;0.20;;;11.90;99.90;;;;;;5031475;28;20417;-74
2022/09/20 08:01:31;;;;;;;3.13;0.30;;;12.00;99.90;;;;;;5041333;28;20405;-75
2022/09/20 08:03:57;;;;;;;4.53;0.70;;;12.10;99.90;;;;;;5054120;28;20419;-75
2022/09/20 08:06:23;;;;;;;3.55;0.25;;;12.20;99.90;;;;;;5049172;28;20434;-75
2022/09/20 08:08:50;;;;;;;1.63;0.20;;;12.30;99.90;;;;;;5048117;28;20429;-74
2022/09/20 08:11:24;;;;;;;3.03;0.30;;;12.40;99.90;;;;;;5049074;28;20511;-75
2022/09/20 08:13:51;;;;;;;3.95;0.40;;;12.50;99.90;;;;;;5047964;28;20500;-75
2022/09/20 08:16:18;;;;;;;6.65;0.55;;;12.60;99.90;;;;;;5049149;28;20409;-74
2022/09/20 08:18:49;;;;;;;6.88;0.52;;;12.80;99.90;;;;;;5047468;28;20433;-75
2022/09/20 08:21:15;;;;;;;5.40;0.60;;;13.00;99.90;;;;;;5047343;28;20421;-75
2022/09/20 08:23:43;;;;;;;6.03;0.57;;;13.10;99.90;;;;;;5048089;28;20428;-75
2022/09/20 08:26:11;;;;;;;5.70;0.73;;;13.30;99.90;;;;;;5049089;28;20424;-75
2022/09/20 08:28:38;;;;;;;4.35;0.47;;;13.60;99.90;;;;;;5046337;28;20426;-75
2022/09/20 08:31:08;;;;;;;2.93;0.40;;;13.80;99.90;;;;;;5050162;28;20993;-75
2022/09/20 08:33:36;;;;;;;3.87;0.63;;;13.80;99.90;;;;;;5047533;28;20417;-75
2022/09/20 08:36:06;;;;;;;4.77;0.47;;;14.00;99.90;;;;;;5048314;28;21015;-75
2022/09/20 08:38:33;;;;;;;2.80;0.40;;;14.00;99.90;;;;;;5050241;28;20405;-75
2022/09/20 08:41:20;;;;;;;1.52;0.20;;;14.00;99.90;;;;;;5049159;28;20898;-75
2022/09/20 08:44:10;;;;;;;5.53;0.25;;;14.10;99.90;;;;;;5049698;28;20417;-75
2022/09/20 08:46:41;;;;;;;2.40;0.30;;;14.10;99.90;;;;;;5040527;28;20418;-74
2022/09/20 08:49:09;;;;;;;4.35;0.47;;;14.20;99.90;;;;;;5050224;28;20460;-74
2022/09/20 08:51:38;;;;;;;2.10;0.22;;;14.20;99.90;;;;;;5030857;28;20447;-74
2022/09/20 08:54:09;;;;;;;3.35;0.50;;;14.20;99.90;;;;;;5035396;28;20429;-75
2022/09/20 08:56:36;;;;;;;5.13;0.35;;;14.30;99.90;;;;;;5049439;28;20408;-75
2022/09/20 08:59:10;;;;;;;3.70;0.50;;;14.60;99.90;;;;;;5048691;28;20398;-75
2022/09/20 09:01:36;;;;;;;4.63;0.30;;;14.80;99.90;;;;;;5043436;28;20404;-75
2022/09/20 09:04:22;;;;;;;6.27;0.80;;;15.00;99.90;;;;;;5051041;28;20485;-75
2022/09/20 09:06:50;;;;;;;5.57;0.50;;;14.90;99.90;;;;;;5048730;28;20459;-75
2022/09/20 09:09:25;;;;;;;3.65;0.32;;;14.80;99.90;;;;;;5031313;28;20429;-75
2022/09/20 09:11:52;;;;;;;4.78;0.52;;;14.70;99.90;;;;;;5062027;28;20465;-76
2022/09/20 09:14:48;;;;;;;4.43;0.50;;;14.60;99.90;;;;;;5048893;28;20426;-75
2022/09/20 09:17:28;;;;;;;2.92;0.30;;;15.10;99.90;;;;;;5018515;28;20915;-75
2022/09/20 09:20:20;;;;;;;2.00;0.20;;;16.20;99.90;;;;;;5048191;28;20424;-74
2022/09/20 09:22:47;;;;;;;3.70;0.30;;;17.00;99.90;;;;;;5049147;28;20588;-75
2022/09/20 09:25:13;;;;;;;4.72;0.75;;;17.00;99.90;;;;;;5049013;28;20788;-74
2022/09/20 09:27:59;;;;;;;5.03;0.70;;;16.60;99.90;;;;;;5048852;28;20477;-75
2022/09/20 09:30:31;;;;;;;4.05;0.40;;;16.20;99.90;;;;;;5019917;28;20445;-75
2022/09/20 09:33:15;;;;;;;3.17;0.20;;;15.90;99.90;;;;;;5058753;28;20456;-75
2022/09/20 09:35:42;;;;;;;3.20;0.60;;;15.70;99.90;;;;;;5041325;28;20430;-75
2022/09/20 09:38:20;;;;;;;4.65;0.47;;;15.60;99.90;;;;;;5061995;28;20413;-75
2022/09/20 09:40:52;;;;;;;3.50;0.30;;;15.50;99.90;;;;;;5055947;28;20445;-75
2022/09/20 09:43:29;;;;;;;1.67;0.20;;;15.40;99.90;;;;;;5036780;28;20548;-75
2022/09/20 09:46:14;;;;;;;3.30;0.40;;;15.30;99.90;;;;;;5047655;28;20500;-75
2022/09/20 09:48:40;;;;;;;3.85;0.38;;;15.30;99.90;;;;;;5014110;28;20482;-76
2022/09/20 09:51:07;;;;;;;2.67;0.30;;;15.20;99.90;;;;;;5047246;28;20425;-75
2022/09/20 09:53:34;;;;;;;3.97;0.30;;;15.10;99.90;;;;;;5048789;28;20462;-75
2022/09/20 09:56:05;;;;;;;3.00;0.25;;;15.10;99.90;;;;;;5027869;28;20422;-75
2022/09/20 09:58:55;;;;;;;3.33;0.28;;;15.10;99.90;;;;;;5041282;28;20425;-75
2022/09/20 10:01:58;;;;;;;5.75;0.70;;;15.20;99.90;;;;;;5051297;28;20427;-75
2022/09/20 10:04:42;;;;;;;5.25;0.40;;;15.20;99.90;;;;;;5019381;28;20429;-75
2022/09/20 10:07:27;;;;;;;5.28;0.40;;;15.30;99.90;;;;;;5041548;28;20920;-75
2022/09/20 10:10:16;;;;;;;4.07;0.60;;;15.40;99.90;;;;;;5059985;28;20423;-75
2022/09/20 10:13:02;;;;;;;3.60;0.43;;;15.50;99.90;;;;;;5055022;28;20437;-75
2022/09/20 10:15:51;;;;;;;4.00;0.50;;;15.70;99.90;;;;;;5061503;28;20819;-75
2022/09/20 10:18:23;;;;;;;3.85;0.30;;;16.00;99.90;;;;;;5058021;28;20807;-75
2022/09/20 10:21:24;;;;;;;5.55;0.40;;;16.20;99.90;;;;;;5046823;28;20783;-75
2022/09/20 10:23:52;;;;;;;4.38;0.50;;;16.60;99.90;;;;;;5029089;28;20437;-75
2022/09/20 10:26:32;;;;;;;1.80;0.22;;;16.80;99.90;;;;;;5028406;28;20416;-74
2022/09/20 10:29:24;;;;;;;2.97;0.28;;;16.90;99.90;;;;;;5043117;28;20433;-75
2022/09/20 10:31:56;;;;;;;4.05;0.80;;;17.00;99.90;;;;;;5008627;28;20493;-74
2022/09/20 10:34:40;;;;;;;4.80;0.40;;;17.00;99.90;;;;;;5045569;28;20429;-75
2022/09/20 10:37:31;;;;;;;3.65;0.40;;;17.10;99.90;;;;;;5045795;28;20417;-75
2022/09/20 10:40:20;;;;;;;4.70;0.50;;;17.10;99.90;;;;;;4983560;28;20793;-76
2022/09/20 10:46:03;;;;;;;4.78;0.60;;;17.20;99.80;;;;;;5044729;28;20405;-75
2022/09/20 10:48:51;;;;;;;7.00;0.50;;;17.30;99.40;;;;;;5045940;28;20425;-75
2022/09/20 10:51:39;;;;;;;4.60;0.40;;;17.40;99.40;;;;;;5047845;28;20749;-75
2022/09/20 10:54:11;;;;;;;6.78;0.40;;;17.50;98.90;;;;;;5049133;28;20413;-75
2022/09/20 10:56:46;;;;;;;4.60;0.55;;;17.90;98.60;;;;;;5037797;28;20924;-74
2022/09/20 10:59:22;;;;;;;32.15;6.53;;;18.90;99.30;;;;;;5051372;28;20434;-73
2022/09/20 11:02:30;;;;;;;5.35;0.60;;;20.20;98.10;;;;;;5051113;28;20480;-74
2022/09/20 11:05:25;;;;;;;4.60;0.50;;;21.50;94.90;;;;;;5049833;28;20438;-74
2022/09/20 11:07:58;;;;;;;6.53;0.70;;;22.40;93.60;;;;;;5039986;28;20514;-74
2022/09/20 11:10:34;;;;;;;4.82;0.60;;;22.60;91.30;;;;;;5051322;28;20424;-74
2022/09/20 11:13:07;;;;;;;3.72;0.50;;;22.20;90.60;;;;;;5049686;28;20429;-75
2022/09/20 11:15:38;;;;;;;5.05;0.68;;;21.40;89.20;;;;;;5046057;28;20776;-74
2022/09/20 11:18:37;;;;;;;5.07;0.75;;;21.00;90.90;;;;;;5050660;28;20421;-74
2022/09/20 11:21:31;;;;;;;6.25;0.50;;;21.70;91.60;;;;;;5041047;28;20408;-74
2022/09/20 11:24:10;;;;;;;2.90;0.40;;;22.70;88.60;;;;;;5043095;28;20432;-74
2022/09/20 11:26:46;;;;;;;2.78;0.40;;;23.10;85.90;;;;;;5049206;28;20459;-74
2022/09/20 11:29:15;;;;;;;3.40;0.40;;;23.70;87.90;;;;;;5050177;28;20460;-74
2022/09/20 11:31:45;;;;;;;3.37;0.60;;;24.30;83.10;;;;;;5049542;28;20409;-74
2022/09/20 11:34:42;;;;;;;3.97;0.40;;;24.30;82.10;;;;;;5050659;28;20398;-74
2022/09/20 11:37:08;;;;;;;4.30;0.47;;;24.40;78.20;;;;;;5049828;28;20409;-74
2022/09/20 11:39:49;;;;;;;4.30;0.45;;;24.80;80.60;;;;;;5049527;28;20426;-74
2022/09/20 11:42:19;;;;;;;5.05;0.75;;;24.60;80.00;;;;;;5013066;28;20498;-74
2022/09/20 11:44:45;;;;;;;5.35;0.73;;;23.60;78.10;;;;;;5048612;28;20426;-74
2022/09/20 11:47:24;;;;;;;5.18;0.65;;;22.50;80.10;;;;;;5049071;28;20459;-74
2022/09/20 11:50:34;;;;;;;3.58;0.60;;;21.50;83.60;;;;;;5050361;28;20409;-73
2022/09/20 11:53:39;;;;;;;6.43;0.50;;;20.60;85.40;;;;;;5006399;28;20426;-74
2022/09/20 11:56:22;;;;;;;6.00;0.50;;;19.80;86.70;;;;;;5046010;28;20440;-73
2022/09/20 11:59:02;;;;;;;5.63;0.73;;;19.40;87.80;;;;;;5047737;28;20460;-73
2022/09/20 12:01:36;;;;;;;5.20;0.70;;;19.00;89.00;;;;;;5047777;28;20413;-73
2022/09/20 12:04:22;;;;;;;6.23;0.77;;;18.70;89.30;;;;;;5049180;28;20410;-72
2022/09/20 12:07:14;;;;;;;4.38;0.47;;;18.40;89.80;;;;;;5050396;28;20410;-73
2022/09/20 12:09:44;;;;;;;4.68;0.52;;;18.10;90.00;;;;;;5043360;28;20507;-74
2022/09/20 12:12:31;;;;;;;5.60;0.50;;;18.70;90.90;;;;;;5032476;28;20977;-74
2022/09/20 12:15:00;;;;;;;4.28;0.50;;;19.80;90.40;;;;;;5045480;28;20415;-74
2022/09/20 12:17:44;;;;;;;2.97;0.65;;;21.00;89.10;;;;;;5032422;28;20919;-74
2022/09/20 12:20:31;;;;;;;3.40;0.40;;;21.70;84.90;;;;;;5049021;28;20494;-74
2022/09/20 12:23:34;;;;;;;3.40;0.25;;;21.90;83.60;;;;;;5047895;28;21085;-75
2022/09/20 12:26:04;;;;;;;4.18;0.38;;;22.60;82.80;;;;;;5040415;28;20405;-75
2022/09/20 12:28:37;;;;;;;3.25;0.20;;;23.30;81.80;;;;;;5047596;28;20830;-75
2022/09/20 12:31:21;;;;;;;3.17;0.30;;;23.50;80.20;;;;;;5031556;28;21061;-74
2022/09/20 12:34:25;;;;;;;2.80;0.20;;;23.50;77.60;;;;;;5055862;28;20400;-74
2022/09/20 12:36:53;;;;;;;2.45;0.25;;;23.80;78.10;;;;;;5051849;28;20404;-75
2022/09/20 12:39:25;;;;;;;1.75;0.20;;;24.30;74.50;;;;;;5047174;28;20428;-74
2022/09/20 12:41:57;;;;;;;2.35;0.20;;;24.60;73.40;;;;;;5018502;28;20414;-75
2022/09/20 12:44:48;;;;;;;2.70;0.30;;;24.80;75.10;;;;;;5048330;28;20417;-74
2022/09/20 12:47:21;;;;;;;2.03;0.20;;;25.40;72.80;;;;;;5048405;28;20493;-74
2022/09/20 12:52:49;;;;;;;2.97;0.30;;;26.00;70.60;;;;;;5044289;28;20426;-74
2022/09/20 12:55:37;;;;;;;2.03;0.20;;;25.40;70.20;;;;;;5049021;28;20779;-74
2022/09/20 12:58:04;;;;;;;3.40;0.20;;;24.30;68.50;;;;;;5017045;28;20417;-74
2022/09/20 13:00:38;;;;;;;2.20;0.20;;;24.60;68.10;;;;;;5047335;28;20425;-75
2022/09/20 13:03:22;;;;;;;2.03;0.20;;;25.20;67.90;;;;;;5048882;28;20772;-74
2022/09/20 13:06:07;;;;;;;4.43;0.43;;;25.40;68.60;;;;;;5049602;28;20914;-74
2022/09/20 13:09:03;;;;;;;2.45;0.50;;;26.00;67.90;;;;;;5047573;28;20491;-76
2022/09/20 13:11:47;;;;;;;3.13;0.30;;;26.20;65.50;;;;;;5030810;28;20414;-74
2022/09/20 13:14:21;;;;;;;2.13;0.13;;;25.00;65.80;;;;;;5046790;28;20425;-74
2022/09/20 13:16:57;;;;;;;2.75;0.30;;;24.60;67.10;;;;;;5048560;28;20421;-74
2022/09/20 13:19:28;;;;;;;3.10;0.40;;;25.10;67.20;;;;;;5048696;28;20992;-74
2022/09/20 13:22:16;;;;;;;3.47;0.37;;;25.20;67.00;;;;;;5048876;28;20425;-75
2022/09/20 13:24:45;;;;;;;3.93;0.37;;;25.30;66.00;;;;;;5049211;28;20409;-75
2022/09/20 13:27:16;;;;;;;4.00;0.50;;;25.40;65.90;;;;;;5046662;28;20483;-75
2022/09/20 13:29:44;;;;;;;2.33;0.32;;;25.70;65.10;;;;;;5030777;28;20472;-74
2022/09/20 13:32:25;;;;;;;3.70;0.28;;;25.90;65.20;;;;;;5046936;28;21290;-75
2022/09/20 13:35:08;;;;;;;3.83;0.40;;;26.10;63.70;;;;;;5030703;28;20962;-74
2022/09/20 13:37:50;;;;;;;2.10;0.20;;;26.40;63.70;;;;;;5048104;28;20432;-74
2022/09/20 13:40:18;;;;;;;3.53;0.32;;;26.20;62.20;;;;;;5019153;28;20424;-75
2022/09/20 13:42:45;;;;;;;1.77;0.30;;;24.90;62.10;;;;;;5047226;28;20425;-74
2022/09/20 13:45:13;;;;;;;1.50;0.20;;;23.60;63.70;;;;;;5026173;28;20493;-74
2022/09/20 13:47:42;;;;;;;2.72;0.15;;;22.60;65.20;;;;;;5043115;28;20421;-74
2022/09/20 13:50:21;;;;;;;3.38;0.20;;;22.00;66.50;;;;;;5048274;28;20401;-74
2022/09/20 13:52:50;;;;;;;2.70;0.20;;;21.40;67.50;;;;;;5029745;28;20488;-74
2022/09/20 13:55:39;;;;;;;2.17;0.10;;;21.00;69.10;;;;;;5045418;28;20484;-74
2022/09/20 13:58:17;;;;;;;2.75;0.20;;;20.60;70.50;;;;;;5046117;28;20891;-74
2022/09/20 14:01:10;;;;;;;3.40;0.30;;;20.40;70.70;;;;;;5029997;28;20436;-74